sensor_id;sensor_type;location;lat;lon;timestamp;pressure;altitude;pressure_sealevel;temperature;humidity
68807;BME280;55800;54.272;18.558;2022-07-01T00:01:25;100714.25;;;20.42;54.78
68807;BME280;55800;54.272;18.558;2022-07-01T00:03:54;100719.69;;;20.42;54.57
68807;BME280;55800;54.272;18.558;2022-07-01T00:06:23;100723.38;;;20.41;54.66
68807;BME280;55800;54.272;18.558;2022-07-01T00:08:52;100712.63;;;20.39;54.66
68807;BME280;55800;54.272;18.558;2022-07-01T00:11:21;100721.88;;;20.37;54.40
68807;BME280;55800;54.272;18.558;2022-07-01T00:13:51;100726.44;;;20.36;54.10
68807;BME280;55800;54.272;18.558;2022-07-01T00:16:20;100723.88;;;20.35;54.57
68807;BME280;55800;54.272;18.558;2022-07-01T00:18:49;100719.44;;;20.34;54.54
68807;BME280;55800;54.272;18.558;2022-07-01T00:21:19;100726.72;;;20.33;54.48
68807;BME280;55800;54.272;18.558;2022-07-01T00:23:47;100731.28;;;20.33;54.19
68807;BME280;55800;54.272;18.558;2022-07-01T00:26:16;100730.41;;;20.32;54.57
68807;BME280;55800;54.272;18.558;2022-07-01T00:28:46;100738.69;;;20.31;54.86
68807;BME280;55800;54.272;18.558;2022-07-01T00:31:16;100747.69;;;20.31;54.72
68807;BME280;55800;54.272;18.558;2022-07-01T00:33:45;100764.97;;;20.30;54.78
68807;BME280;55800;54.272;18.558;2022-07-01T00:36:14;100755.19;;;20.28;54.57
68807;BME280;55800;54.272;18.558;2022-07-01T00:38:43;100769.78;;;20.27;54.45
68807;BME280;55800;54.272;18.558;2022-07-01T00:41:12;100768.03;;;20.26;54.35
68807;BME280;55800;54.272;18.558;2022-07-01T00:43:41;100781.75;;;20.24;54.38
68807;BME280;55800;54.272;18.558;2022-07-01T00:46:27;100770.28;;;20.20;54.37
68807;BME280;55800;54.272;18.558;2022-07-01T00:48:59;100784.78;;;20.19;54.17
68807;BME280;55800;54.272;18.558;2022-07-01T00:51:29;100783.06;;;20.18;54.34
68807;BME280;55800;54.272;18.558;2022-07-01T00:53:59;100783.16;;;20.17;54.54
68807;BME280;55800;54.272;18.558;2022-07-01T00:56:29;100783.31;;;20.15;54.30
68807;BME280;55800;54.272;18.558;2022-07-01T00:58:58;100771.56;;;20.15;54.21
68807;BME280;55800;54.272;18.558;2022-07-01T01:01:29;100770.81;;;20.13;54.16
68807;BME280;55800;54.272;18.558;2022-07-01T01:03:59;100760.84;;;20.13;54.85
68807;BME280;55800;54.272;18.558;2022-07-01T01:06:28;100760.97;;;20.12;54.89
68807;BME280;55800;54.272;18.558;2022-07-01T01:08:57;100764.78;;;20.09;54.75
68807;BME280;55800;54.272;18.558;2022-07-01T01:11:27;100774.78;;;20.09;54.38
68807;BME280;55800;54.272;18.558;2022-07-01T01:13:56;100777.63;;;20.07;54.95
68807;BME280;55800;54.272;18.558;2022-07-01T01:16:25;100785.03;;;20.05;54.91
68807;BME280;55800;54.272;18.558;2022-07-01T01:18:56;100789.72;;;20.03;54.49
68807;BME280;55800;54.272;18.558;2022-07-01T01:21:27;100783.53;;;20.01;54.75
68807;BME280;55800;54.272;18.558;2022-07-01T01:23:57;100775.50;;;20.00;54.96
68807;BME280;55800;54.272;18.558;2022-07-01T01:26:26;100793.75;;;19.98;54.97
68807;BME280;55800;54.272;18.558;2022-07-01T01:28:55;100801.13;;;19.96;54.49
68807;BME280;55800;54.272;18.558;2022-07-01T01:31:27;100800.41;;;19.94;54.22
68807;BME280;55800;54.272;18.558;2022-07-01T01:33:57;100788.94;;;19.90;54.96
68807;BME280;55800;54.272;18.558;2022-07-01T01:36:29;100793.47;;;19.90;55.07
68807;BME280;55800;54.272;18.558;2022-07-01T01:38:58;100802.63;;;19.89;55.46
68807;BME280;55800;54.272;18.558;2022-07-01T01:41:31;100798.28;;;19.86;55.53
68807;BME280;55800;54.272;18.558;2022-07-01T01:44:00;100789.41;;;19.84;55.10
68807;BME280;55800;54.272;18.558;2022-07-01T01:46:28;100787.91;;;19.80;54.75
68807;BME280;55800;54.272;18.558;2022-07-01T01:48:58;100780.75;;;19.79;54.98
68807;BME280;55800;54.272;18.558;2022-07-01T01:51:29;100785.56;;;19.76;54.84
68807;BME280;55800;54.272;18.558;2022-07-01T01:53:59;100786.66;;;19.73;54.80
68807;BME280;55800;54.272;18.558;2022-07-01T01:56:28;100795.78;;;19.72;54.78
68807;BME280;55800;54.272;18.558;2022-07-01T01:58:58;100779.72;;;19.69;54.83
68807;BME280;55800;54.272;18.558;2022-07-01T02:01:27;100778.00;;;19.68;54.75
68807;BME280;55800;54.272;18.558;2022-07-01T02:03:56;100777.25;;;19.66;54.61
68807;BME280;55800;54.272;18.558;2022-07-01T02:06:28;100786.38;;;19.65;54.57
68807;BME280;55800;54.272;18.558;2022-07-01T02:08:57;100781.91;;;19.64;54.87
68807;BME280;55800;54.272;18.558;2022-07-01T02:11:26;100791.94;;;19.64;54.34
68807;BME280;55800;54.272;18.558;2022-07-01T02:13:55;100793.03;;;19.61;54.76
68807;BME280;55800;54.272;18.558;2022-07-01T02:16:24;100794.00;;;19.60;54.64
68807;BME280;55800;54.272;18.558;2022-07-01T02:18:54;100793.13;;;19.60;54.90
68807;BME280;55800;54.272;18.558;2022-07-01T02:21:23;100811.28;;;19.59;54.53
68807;BME280;55800;54.272;18.558;2022-07-01T02:23:54;100807.69;;;19.59;54.18
68807;BME280;55800;54.272;18.558;2022-07-01T02:26:23;100814.06;;;19.58;54.77
68807;BME280;55800;54.272;18.558;2022-07-01T02:28:51;100798.53;;;19.60;54.76
68807;BME280;55800;54.272;18.558;2022-07-01T02:31:21;100803.97;;;19.60;54.68
68807;BME280;55800;54.272;18.558;2022-07-01T02:33:49;100803.88;;;19.61;54.46
68807;BME280;55800;54.272;18.558;2022-07-01T02:36:19;100803.88;;;19.61;54.82
68807;BME280;55800;54.272;18.558;2022-07-01T02:38:48;100801.03;;;19.63;54.66
68807;BME280;55800;54.272;18.558;2022-07-01T02:41:18;100786.50;;;19.64;54.65
68807;BME280;55800;54.272;18.558;2022-07-01T02:43:47;100781.91;;;19.64;54.79
68807;BME280;55800;54.272;18.558;2022-07-01T02:46:16;100797.22;;;19.65;54.94
68807;BME280;55800;54.272;18.558;2022-07-01T02:48:46;100792.69;;;19.66;55.07
68807;BME280;55800;54.272;18.558;2022-07-01T02:51:15;100785.38;;;19.66;54.99
68807;BME280;55800;54.272;18.558;2022-07-01T02:53:44;100788.00;;;19.68;54.88
68807;BME280;55800;54.272;18.558;2022-07-01T02:56:13;100783.41;;;19.68;54.94
68807;BME280;55800;54.272;18.558;2022-07-01T02:58:43;100778.00;;;19.68;54.75
68807;BME280;55800;54.272;18.558;2022-07-01T03:01:12;100786.03;;;19.70;54.96
68807;BME280;55800;54.272;18.558;2022-07-01T03:03:41;100771.59;;;19.69;54.52
68807;BME280;55800;54.272;18.558;2022-07-01T03:06:10;100778.88;;;19.69;55.03
68807;BME280;55800;54.272;18.558;2022-07-01T03:08:39;100776.91;;;19.71;55.07
68807;BME280;55800;54.272;18.558;2022-07-01T03:11:16;100767.88;;;19.70;54.72
68807;BME280;55800;54.272;18.558;2022-07-01T03:13:47;100757.91;;;19.71;55.18
68807;BME280;55800;54.272;18.558;2022-07-01T03:16:16;100761.50;;;19.71;55.50
68807;BME280;55800;54.272;18.558;2022-07-01T03:18:45;100756.94;;;19.72;55.42
68807;BME280;55800;54.272;18.558;2022-07-01T03:21:15;100755.94;;;19.73;55.87
68807;BME280;55800;54.272;18.558;2022-07-01T03:23:43;100748.66;;;19.73;56.38
68807;BME280;55800;54.272;18.558;2022-07-01T03:26:12;100746.69;;;19.75;56.17
68807;BME280;55800;54.272;18.558;2022-07-01T03:28:42;100752.13;;;19.75;57.00
68807;BME280;55800;54.272;18.558;2022-07-01T03:31:12;100747.56;;;19.76;56.86
68807;BME280;55800;54.272;18.558;2022-07-01T03:33:42;100746.69;;;19.75;57.55
68807;BME280;55800;54.272;18.558;2022-07-01T03:36:11;100741.28;;;19.75;57.91
68807;BME280;55800;54.272;18.558;2022-07-01T03:38:40;100737.81;;;19.73;57.92
68807;BME280;55800;54.272;18.558;2022-07-01T03:41:10;100736.94;;;19.73;58.18
68807;BME280;55800;54.272;18.558;2022-07-01T03:43:39;100728.94;;;19.71;58.11
68807;BME280;55800;54.272;18.558;2022-07-01T03:46:08;100735.47;;;19.69;58.13
68807;BME280;55800;54.272;18.558;2022-07-01T03:48:41;100737.31;;;19.68;58.38
68807;BME280;55800;54.272;18.558;2022-07-01T03:51:10;100744.59;;;19.68;58.25
68807;BME280;55800;54.272;18.558;2022-07-01T03:53:40;100746.56;;;19.66;58.29
68807;BME280;55800;54.272;18.558;2022-07-01T03:56:26;100742.97;;;19.65;58.62
68807;BME280;55800;54.272;18.558;2022-07-01T03:58:55;100742.97;;;19.65;57.89
68807;BME280;55800;54.272;18.558;2022-07-01T04:01:24;100738.53;;;19.64;58.16
68807;BME280;55800;54.272;18.558;2022-07-01T04:03:55;100739.53;;;19.63;57.78
68807;BME280;55800;54.272;18.558;2022-07-01T04:06:24;100754.06;;;19.62;57.90
68807;BME280;55800;54.272;18.558;2022-07-01T04:08:54;100755.81;;;19.63;57.60
68807;BME280;55800;54.272;18.558;2022-07-01T04:11:24;100752.09;;;19.64;57.78
68807;BME280;55800;54.272;18.558;2022-07-01T04:13:53;100748.41;;;19.65;58.15
68807;BME280;55800;54.272;18.558;2022-07-01T04:16:23;100741.97;;;19.66;58.08
68807;BME280;55800;54.272;18.558;2022-07-01T04:18:55;100738.03;;;19.70;58.37
68807;BME280;55800;54.272;18.558;2022-07-01T04:21:24;100747.78;;;19.73;58.32
68807;BME280;55800;54.272;18.558;2022-07-01T04:24:11;100741.28;;;19.75;58.19
68807;BME280;55800;54.272;18.558;2022-07-01T04:26:41;100749.94;;;19.80;58.46
68807;BME280;55800;54.272;18.558;2022-07-01T04:29:11;100746.75;;;19.86;58.93
68807;BME280;55800;54.272;18.558;2022-07-01T04:31:40;100741.56;;;19.94;59.26
68807;BME280;55800;54.272;18.558;2022-07-01T04:34:11;100742.81;;;20.01;59.17
68807;BME280;55800;54.272;18.558;2022-07-01T04:36:40;100742.06;;;20.10;59.33
68807;BME280;55800;54.272;18.558;2022-07-01T04:39:09;100730.75;;;20.16;59.13
68807;BME280;55800;54.272;18.558;2022-07-01T04:41:38;100733.75;;;20.25;59.03
68807;BME280;55800;54.272;18.558;2022-07-01T04:44:25;100736.47;;;20.36;59.20
68807;BME280;55800;54.272;18.558;2022-07-01T04:46:54;100734.72;;;20.46;59.73
68807;BME280;55800;54.272;18.558;2022-07-01T04:49:25;100738.44;;;20.56;59.45
68807;BME280;55800;54.272;18.558;2022-07-01T04:51:56;100716.69;;;20.67;60.13
68807;BME280;55800;54.272;18.558;2022-07-01T04:54:25;100725.81;;;20.77;60.30
68807;BME280;55800;54.272;18.558;2022-07-01T04:56:55;100729.38;;;20.88;60.85
68807;BME280;55800;54.272;18.558;2022-07-01T04:59:24;100724.91;;;20.98;60.24
68807;BME280;55800;54.272;18.558;2022-07-01T05:01:53;100734.16;;;21.07;59.81
68807;BME280;55800;54.272;18.558;2022-07-01T05:04:23;100737.09;;;21.15;60.14
68807;BME280;55800;54.272;18.558;2022-07-01T05:06:54;100728.03;;;21.26;59.96
68807;BME280;55800;54.272;18.558;2022-07-01T05:09:23;100735.31;;;21.36;60.12
68807;BME280;55800;54.272;18.558;2022-07-01T05:11:54;100725.34;;;21.46;59.93
68807;BME280;55800;54.272;18.558;2022-07-01T05:14:23;100726.31;;;21.56;60.02
68807;BME280;55800;54.272;18.558;2022-07-01T05:16:52;100722.91;;;21.64;59.52
68807;BME280;55800;54.272;18.558;2022-07-01T05:19:21;100726.72;;;21.72;59.67
68807;BME280;55800;54.272;18.558;2022-07-01T05:22:09;100723.97;;;21.84;59.84
68807;BME280;55800;54.272;18.558;2022-07-01T05:24:38;100719.44;;;21.94;59.81
68807;BME280;55800;54.272;18.558;2022-07-01T05:27:08;100729.25;;;22.06;60.37
68807;BME280;55800;54.272;18.558;2022-07-01T05:29:37;100726.44;;;22.17;60.38
68807;BME280;55800;54.272;18.558;2022-07-01T05:32:07;100730.06;;;22.27;60.07
68807;BME280;55800;54.272;18.558;2022-07-01T05:34:36;100739.03;;;22.38;60.17
68807;BME280;55800;54.272;18.558;2022-07-01T05:37:10;100731.66;;;22.50;60.13
68807;BME280;55800;54.272;18.558;2022-07-01T05:39:39;100722.38;;;22.62;60.18
68807;BME280;55800;54.272;18.558;2022-07-01T05:42:17;100720.41;;;22.74;60.26
68807;BME280;55800;54.272;18.558;2022-07-01T05:44:46;100733.06;;;22.84;60.40
68807;BME280;55800;54.272;18.558;2022-07-01T05:47:16;100742.16;;;22.94;60.38
68807;BME280;55800;54.272;18.558;2022-07-01T05:49:45;100762.97;;;23.05;60.31
68807;BME280;55800;54.272;18.558;2022-07-01T05:52:15;100760.97;;;23.16;60.57
68807;BME280;55800;54.272;18.558;2022-07-01T05:54:44;100766.31;;;23.27;60.46
68807;BME280;55800;54.272;18.558;2022-07-01T05:57:13;100770.66;;;23.40;60.37
68807;BME280;55800;54.272;18.558;2022-07-01T05:59:42;100774.28;;;23.50;60.50
68807;BME280;55800;54.272;18.558;2022-07-01T06:02:11;100774.28;;;23.59;60.42
68807;BME280;55800;54.272;18.558;2022-07-01T06:04:41;100781.19;;;23.73;60.46
68807;BME280;55800;54.272;18.558;2022-07-01T06:07:11;100772.09;;;23.82;60.29
68807;BME280;55800;54.272;18.558;2022-07-01T06:09:41;100768.50;;;23.91;60.19
68807;BME280;55800;54.272;18.558;2022-07-01T06:12:10;100768.50;;;24.00;60.20
68807;BME280;55800;54.272;18.558;2022-07-01T06:14:39;100774.84;;;24.11;60.30
68807;BME280;55800;54.272;18.558;2022-07-01T06:17:09;100776.69;;;24.20;60.38
68807;BME280;55800;54.272;18.558;2022-07-01T06:19:38;100767.75;;;24.27;60.21
68807;BME280;55800;54.272;18.558;2022-07-01T06:22:07;100770.44;;;24.37;60.23
68807;BME280;55800;54.272;18.558;2022-07-01T06:24:36;100766.97;;;24.44;60.01
68807;BME280;55800;54.272;18.558;2022-07-01T06:27:07;100762.34;;;24.54;59.95
68807;BME280;55800;54.272;18.558;2022-07-01T06:29:36;100764.34;;;24.62;60.10
68807;BME280;55800;54.272;18.558;2022-07-01T06:32:06;100770.78;;;24.70;60.07
68807;BME280;55800;54.272;18.558;2022-07-01T06:34:36;100777.25;;;24.79;60.04
68807;BME280;55800;54.272;18.558;2022-07-01T06:37:06;100755.59;;;24.86;60.02
68807;BME280;55800;54.272;18.558;2022-07-01T06:39:36;100756.56;;;24.94;59.90
68807;BME280;55800;54.272;18.558;2022-07-01T06:42:07;100762.97;;;25.03;59.83
68807;BME280;55800;54.272;18.558;2022-07-01T06:44:36;100760.38;;;25.11;59.95
68807;BME280;55800;54.272;18.558;2022-07-01T06:47:06;100764.88;;;25.20;60.00
68807;BME280;55800;54.272;18.558;2022-07-01T06:49:35;100766.00;;;25.27;60.00
68807;BME280;55800;54.272;18.558;2022-07-01T06:52:05;100761.66;;;25.34;59.76
68807;BME280;55800;54.272;18.558;2022-07-01T06:54:35;100763.63;;;25.41;59.80
68807;BME280;55800;54.272;18.558;2022-07-01T06:57:07;100760.13;;;25.49;59.75
68807;BME280;55800;54.272;18.558;2022-07-01T06:59:36;100761.91;;;25.58;59.88
68807;BME280;55800;54.272;18.558;2022-07-01T07:02:06;100764.72;;;25.66;59.53
68807;BME280;55800;54.272;18.558;2022-07-01T07:04:35;100760.34;;;25.73;59.54
68807;BME280;55800;54.272;18.558;2022-07-01T07:07:24;100763.00;;;25.83;59.49
68807;BME280;55800;54.272;18.558;2022-07-01T07:09:54;100764.94;;;25.90;59.63
68807;BME280;55800;54.272;18.558;2022-07-01T07:12:26;100762.25;;;25.98;59.60
68807;BME280;55800;54.272;18.558;2022-07-01T07:14:55;100754.97;;;26.07;59.43
68807;BME280;55800;54.272;18.558;2022-07-01T07:17:24;100757.78;;;26.15;59.42
68807;BME280;55800;54.272;18.558;2022-07-01T07:19:53;100759.75;;;26.22;59.19
68807;BME280;55800;54.272;18.558;2022-07-01T07:22:23;100765.09;;;26.32;59.28
68807;BME280;55800;54.272;18.558;2022-07-01T07:24:52;100769.09;;;26.38;59.34
68807;BME280;55800;54.272;18.558;2022-07-01T07:27:21;100758.34;;;26.44;59.06
68807;BME280;55800;54.272;18.558;2022-07-01T07:29:52;100766.09;;;26.49;58.90
68807;BME280;55800;54.272;18.558;2022-07-01T07:32:21;100764.56;;;26.54;59.07
68807;BME280;55800;54.272;18.558;2022-07-01T07:34:50;100774.00;;;26.60;58.94
68807;BME280;55800;54.272;18.558;2022-07-01T07:37:19;100765.28;;;26.64;58.72
68807;BME280;55800;54.272;18.558;2022-07-01T07:39:48;100764.81;;;26.69;58.92
68807;BME280;55800;54.272;18.558;2022-07-01T07:42:17;100766.06;;;26.74;58.83
68807;BME280;55800;54.272;18.558;2022-07-01T07:44:46;100762.00;;;26.78;58.71
68807;BME280;55800;54.272;18.558;2022-07-01T07:47:16;100749.16;;;26.87;58.72
68807;BME280;55800;54.272;18.558;2022-07-01T07:49:45;100760.31;;;26.93;58.80
68807;BME280;55800;54.272;18.558;2022-07-01T07:52:15;100775.78;;;27.02;58.59
68807;BME280;55800;54.272;18.558;2022-07-01T07:54:44;100768.28;;;27.13;58.36
68807;BME280;55800;54.272;18.558;2022-07-01T07:57:13;100768.84;;;27.24;58.67
68807;BME280;55800;54.272;18.558;2022-07-01T07:59:42;100768.38;;;27.37;58.67
68807;BME280;55800;54.272;18.558;2022-07-01T08:02:12;100771.69;;;27.48;58.67
68807;BME280;55800;54.272;18.558;2022-07-01T08:04:42;100764.81;;;27.60;58.81
68807;BME280;55800;54.272;18.558;2022-07-01T08:07:11;100761.91;;;27.70;58.83
68807;BME280;55800;54.272;18.558;2022-07-01T08:09:40;100766.19;;;27.80;58.70
68807;BME280;55800;54.272;18.558;2022-07-01T08:12:14;100761.41;;;27.91;58.47
68807;BME280;55800;54.272;18.558;2022-07-01T08:14:43;100762.44;;;27.98;58.37
68807;BME280;55800;54.272;18.558;2022-07-01T08:17:12;100769.16;;;28.03;58.21
68807;BME280;55800;54.272;18.558;2022-07-01T08:19:42;100766.75;;;28.08;57.84
68807;BME280;55800;54.272;18.558;2022-07-01T08:22:11;100760.03;;;28.11;57.67
68807;BME280;55800;54.272;18.558;2022-07-01T08:24:40;100765.91;;;28.16;57.67
68807;BME280;55800;54.272;18.558;2022-07-01T08:27:09;100767.44;;;28.18;57.92
68807;BME280;55800;54.272;18.558;2022-07-01T08:29:40;100769.66;;;28.23;57.65
68807;BME280;55800;54.272;18.558;2022-07-01T08:32:09;100755.56;;;28.26;57.94
68807;BME280;55800;54.272;18.558;2022-07-01T08:34:38;100755.91;;;28.31;57.57
68807;BME280;55800;54.272;18.558;2022-07-01T08:37:09;100758.97;;;28.36;57.40
68807;BME280;55800;54.272;18.558;2022-07-01T08:39:38;100754.69;;;28.41;57.58
68807;BME280;55800;54.272;18.558;2022-07-01T08:42:07;100764.09;;;28.47;57.65
68807;BME280;55800;54.272;18.558;2022-07-01T08:44:36;100762.53;;;28.52;57.53
68807;BME280;55800;54.272;18.558;2022-07-01T08:47:11;100762.72;;;28.59;57.43
68807;BME280;55800;54.272;18.558;2022-07-01T08:49:41;100771.31;;;28.64;57.32
68807;BME280;55800;54.272;18.558;2022-07-01T08:52:12;100758.59;;;28.71;57.66
68807;BME280;55800;54.272;18.558;2022-07-01T08:54:41;100760.63;;;28.77;57.34
68807;BME280;55800;54.272;18.558;2022-07-01T08:57:10;100752.66;;;28.82;57.27
68807;BME280;55800;54.272;18.558;2022-07-01T08:59:39;100748.16;;;28.89;57.41
68807;BME280;55800;54.272;18.558;2022-07-01T09:02:08;100752.97;;;28.95;57.53
68807;BME280;55800;54.272;18.558;2022-07-01T09:04:37;100762.41;;;29.01;57.39
68807;BME280;55800;54.272;18.558;2022-07-01T09:07:08;100751.34;;;29.09;57.06
68807;BME280;55800;54.272;18.558;2022-07-01T09:09:40;100753.56;;;29.13;57.12
68807;BME280;55800;54.272;18.558;2022-07-01T09:12:10;100754.78;;;29.19;57.22
68807;BME280;55800;54.272;18.558;2022-07-01T09:14:39;100764.22;;;29.24;57.26
68807;BME280;55800;54.272;18.558;2022-07-01T09:17:18;100763.50;;;29.30;57.33
68807;BME280;55800;54.272;18.558;2022-07-01T09:19:49;100754.69;;;29.35;56.86
68807;BME280;55800;54.272;18.558;2022-07-01T09:22:19;100748.59;;;29.40;57.05
68807;BME280;55800;54.272;18.558;2022-07-01T09:24:50;100752.34;;;29.47;57.00
68807;BME280;55800;54.272;18.558;2022-07-01T09:27:20;100750.94;;;29.51;56.94
68807;BME280;55800;54.272;18.558;2022-07-01T09:29:54;100751.28;;;29.56;56.82
68807;BME280;55800;54.272;18.558;2022-07-01T09:32:23;100757.06;;;29.61;56.96
68807;BME280;55800;54.272;18.558;2022-07-01T09:34:53;100748.44;;;29.64;56.56
68807;BME280;55800;54.272;18.558;2022-07-01T09:37:25;100752.56;;;29.68;56.74
68807;BME280;55800;54.272;18.558;2022-07-01T09:39:56;100751.31;;;29.70;56.65
68807;BME280;55800;54.272;18.558;2022-07-01T09:42:27;100756.53;;;29.73;56.27
68807;BME280;55800;54.272;18.558;2022-07-01T09:44:58;100756.31;;;29.75;56.55
68807;BME280;55800;54.272;18.558;2022-07-01T09:47:33;100757.00;;;29.77;56.31
68807;BME280;55800;54.272;18.558;2022-07-01T09:50:04;100747.50;;;29.79;56.37
68807;BME280;55800;54.272;18.558;2022-07-01T09:52:36;100759.38;;;29.80;56.42
68807;BME280;55800;54.272;18.558;2022-07-01T09:55:09;100753.50;;;29.83;56.30
68807;BME280;55800;54.272;18.558;2022-07-01T09:57:40;100756.25;;;29.83;56.23
68807;BME280;55800;54.272;18.558;2022-07-01T10:00:10;100756.25;;;29.83;56.03
68807;BME280;55800;54.272;18.558;2022-07-01T10:02:40;100753.50;;;29.83;55.86
68807;BME280;55800;54.272;18.558;2022-07-01T10:05:14;100750.06;;;29.81;56.00
68807;BME280;55800;54.272;18.558;2022-07-01T10:07:57;100744.91;;;29.78;56.27
68807;BME280;55800;54.272;18.558;2022-07-01T10:10:41;100760.63;;;29.77;56.12
68807;BME280;55800;54.272;18.558;2022-07-01T10:13:15;100770.78;;;29.77;56.44
68807;BME280;55800;54.272;18.558;2022-07-01T10:15:47;100774.56;;;29.76;56.53
68807;BME280;55800;54.272;18.558;2022-07-01T10:18:20;100777.16;;;29.77;56.43
68807;BME280;55800;54.272;18.558;2022-07-01T10:20:51;100776.78;;;29.80;56.39
68807;BME280;55800;54.272;18.558;2022-07-01T10:23:21;100791.06;;;29.84;56.24
68807;BME280;55800;54.272;18.558;2022-07-01T10:25:53;100792.22;;;29.89;56.38
68807;BME280;55800;54.272;18.558;2022-07-01T10:28:26;100789.78;;;29.94;56.44
68807;BME280;55800;54.272;18.558;2022-07-01T10:30:58;100784.34;;;30.01;56.60
68807;BME280;55800;54.272;18.558;2022-07-01T10:33:43;100774.09;;;30.09;56.70
68807;BME280;55800;54.272;18.558;2022-07-01T10:36:19;100784.22;;;30.17;56.81
68807;BME280;55800;54.272;18.558;2022-07-01T10:39:15;100784.81;;;30.27;56.66
68807;BME280;55800;54.272;18.558;2022-07-01T10:42:00;100771.16;;;30.34;56.58
68807;BME280;55800;54.272;18.558;2022-07-01T10:45:10;100764.00;;;30.39;56.48
68807;BME280;55800;54.272;18.558;2022-07-01T10:47:40;100773.66;;;30.43;56.58
68807;BME280;55800;54.272;18.558;2022-07-01T10:50:11;100775.00;;;30.47;56.65
68807;BME280;55800;54.272;18.558;2022-07-01T10:52:58;100785.28;;;30.53;56.48
68807;BME280;55800;54.272;18.558;2022-07-01T10:55:38;100787.63;;;30.56;56.40
68807;BME280;55800;54.272;18.558;2022-07-01T10:58:09;100786.22;;;30.60;56.27
68807;BME280;55800;54.272;18.558;2022-07-01T11:00:41;100773.78;;;30.64;56.29
68807;BME280;55800;54.272;18.558;2022-07-01T11:03:19;100757.88;;;30.66;56.09
68807;BME280;55800;54.272;18.558;2022-07-01T11:05:52;100763.00;;;30.69;55.91
68807;BME280;55800;54.272;18.558;2022-07-01T11:08:22;100760.91;;;30.71;55.51
68807;BME280;55800;54.272;18.558;2022-07-01T11:10:59;100754.34;;;30.72;55.46
68807;BME280;55800;54.272;18.558;2022-07-01T11:13:35;100747.75;;;30.73;55.62
68807;BME280;55800;54.272;18.558;2022-07-01T11:16:05;100745.66;;;30.75;55.51
68807;BME280;55800;54.272;18.558;2022-07-01T11:18:34;100727.00;;;30.77;55.46
68807;BME280;55800;54.272;18.558;2022-07-01T11:21:05;100732.16;;;30.80;55.38
68807;BME280;55800;54.272;18.558;2022-07-01T11:23:34;100734.53;;;30.83;55.48
68807;BME280;55800;54.272;18.558;2022-07-01T11:26:23;100728.44;;;30.88;55.61
68807;BME280;55800;54.272;18.558;2022-07-01T11:28:54;100713.25;;;30.92;55.62
68807;BME280;55800;54.272;18.558;2022-07-01T11:31:33;100722.84;;;30.96;55.24
68807;BME280;55800;54.272;18.558;2022-07-01T11:34:03;100723.09;;;31.01;55.39
68807;BME280;55800;54.272;18.558;2022-07-01T11:36:33;100725.28;;;31.06;55.43
68807;BME280;55800;54.272;18.558;2022-07-01T11:39:20;100722.41;;;31.14;55.23
68807;BME280;55800;54.272;18.558;2022-07-01T11:41:54;100723.16;;;31.22;55.10
68807;BME280;55800;54.272;18.558;2022-07-01T11:44:32;100719.44;;;31.30;55.07
68807;BME280;55800;54.272;18.558;2022-07-01T11:47:03;100721.84;;;31.39;55.17
68807;BME280;55800;54.272;18.558;2022-07-01T11:49:33;100726.25;;;31.48;55.04
68807;BME280;55800;54.272;18.558;2022-07-01T11:52:04;100715.25;;;31.55;54.99
68807;BME280;55800;54.272;18.558;2022-07-01T11:54:37;100703.03;;;31.64;55.12
68807;BME280;55800;54.272;18.558;2022-07-01T11:57:11;100694.59;;;31.72;55.09
68807;BME280;55800;54.272;18.558;2022-07-01T11:59:44;100692.53;;;31.81;55.00
68807;BME280;55800;54.272;18.558;2022-07-01T12:02:15;100680.47;;;31.88;55.25
68807;BME280;55800;54.272;18.558;2022-07-01T12:04:45;100680.16;;;31.98;55.23
68807;BME280;55800;54.272;18.558;2022-07-01T12:07:15;100680.00;;;32.06;55.36
68807;BME280;55800;54.272;18.558;2022-07-01T12:09:45;100680.94;;;32.13;54.58
68807;BME280;55800;54.272;18.558;2022-07-01T12:12:18;100678.00;;;32.21;54.96
68807;BME280;55800;54.272;18.558;2022-07-01T12:14:53;100667.63;;;32.29;54.67
68807;BME280;55800;54.272;18.558;2022-07-01T12:17:23;100665.72;;;32.37;54.69
68807;BME280;55800;54.272;18.558;2022-07-01T12:19:53;100664.72;;;32.44;54.44
68807;BME280;55800;54.272;18.558;2022-07-01T12:22:25;100654.75;;;32.50;54.25
68807;BME280;55800;54.272;18.558;2022-07-01T12:25:06;100645.44;;;32.57;54.31
68807;BME280;55800;54.272;18.558;2022-07-01T12:27:36;100664.66;;;32.65;54.20
68807;BME280;55800;54.272;18.558;2022-07-01T12:30:10;100646.16;;;32.72;54.06
68807;BME280;55800;54.272;18.558;2022-07-01T12:32:41;100653.41;;;32.80;54.13
68807;BME280;55800;54.272;18.558;2022-07-01T12:35:12;100648.56;;;32.88;53.96
68807;BME280;55800;54.272;18.558;2022-07-01T12:37:55;100645.81;;;32.95;53.77
68807;BME280;55800;54.272;18.558;2022-07-01T12:40:26;100639.06;;;33.04;53.92
68807;BME280;55800;54.272;18.558;2022-07-01T12:42:56;100633.53;;;33.11;53.84
68807;BME280;55800;54.272;18.558;2022-07-01T12:45:29;100630.75;;;33.17;53.27
68807;BME280;55800;54.272;18.558;2022-07-01T12:47:58;100622.69;;;33.22;53.38
68807;BME280;55800;54.272;18.558;2022-07-01T12:50:28;100624.38;;;33.30;53.06
68807;BME280;55800;54.272;18.558;2022-07-01T12:53:01;100623.75;;;33.34;53.06
68807;BME280;55800;54.272;18.558;2022-07-01T12:55:33;100619.47;;;33.38;52.65
68807;BME280;55800;54.272;18.558;2022-07-01T12:58:04;100615.88;;;33.44;52.25
68807;BME280;55800;54.272;18.558;2022-07-01T13:00:35;100618.22;;;33.47;52.60